sensor_id;sensor_type;location;lat;lon;timestamp;temperature;humidity
18361;SHT31;9308;48.550;9.108;2022-09-09T00:00:24;15.26;71.42
18361;SHT31;9308;48.550;9.108;2022-09-09T00:03:18;15.35;71.15
18361;SHT31;9308;48.550;9.108;2022-09-09T00:06:04;15.08;72.00
18361;SHT31;9308;48.550;9.108;2022-09-09T00:09:17;15.08;72.07
18361;SHT31;9308;48.550;9.108;2022-09-09T00:11:48;15.17;72.13
18361;SHT31;9308;48.550;9.108;2022-09-09T00:14:23;15.31;71.29
18361;SHT31;9308;48.550;9.108;2022-09-09T00:16:55;15.28;71.43
18361;SHT31;9308;48.550;9.108;2022-09-09T00:19:35;15.23;72.12
18361;SHT31;9308;48.550;9.108;2022-09-09T00:22:14;15.42;70.44
18361;SHT31;9308;48.550;9.108;2022-09-09T00:24:44;15.50;70.05
18361;SHT31;9308;48.550;9.108;2022-09-09T00:30:00;15.66;69.01
18361;SHT31;9308;48.550;9.108;2022-09-09T00:32:30;15.47;69.83
18361;SHT31;9308;48.550;9.108;2022-09-09T00:35:48;15.41;69.99
18361;SHT31;9308;48.550;9.108;2022-09-09T00:37:50;15.51;70.26
18361;SHT31;9308;48.550;9.108;2022-09-09T00:40:39;15.58;69.92
18361;SHT31;9308;48.550;9.108;2022-09-09T00:43:14;15.42;70.66
18361;SHT31;9308;48.550;9.108;2022-09-09T00:49:04;15.48;71.01
18361;SHT31;9308;48.550;9.108;2022-09-09T00:52:03;15.41;71.18
18361;SHT31;9308;48.550;9.108;2022-09-09T00:57:13;15.31;71.22
18361;SHT31;9308;48.550;9.108;2022-09-09T00:59:51;15.30;71.53
18361;SHT31;9308;48.550;9.108;2022-09-09T01:02:27;15.35;71.02
18361;SHT31;9308;48.550;9.108;2022-09-09T01:04:54;15.23;71.09
18361;SHT31;9308;48.550;9.108;2022-09-09T01:07:20;15.26;70.76
18361;SHT31;9308;48.550;9.108;2022-09-09T01:09:57;15.38;70.65
18361;SHT31;9308;48.550;9.108;2022-09-09T01:12:42;15.38;70.61
18361;SHT31;9308;48.550;9.108;2022-09-09T01:15:10;15.30;70.47
18361;SHT31;9308;48.550;9.108;2022-09-09T01:17:50;15.13;71.14
18361;SHT31;9308;48.550;9.108;2022-09-09T01:20:30;15.11;71.51
18361;SHT31;9308;48.550;9.108;2022-09-09T01:23:06;14.87;71.97
18361;SHT31;9308;48.550;9.108;2022-09-09T01:28:11;14.90;72.09
18361;SHT31;9308;48.550;9.108;2022-09-09T01:30:40;14.93;71.97
18361;SHT31;9308;48.550;9.108;2022-09-09T01:33:10;15.06;71.21
18361;SHT31;9308;48.550;9.108;2022-09-09T01:35:50;15.14;70.93
18361;SHT31;9308;48.550;9.108;2022-09-09T01:40:53;14.99;71.46
18361;SHT31;9308;48.550;9.108;2022-09-09T01:43:22;15.18;70.52
18361;SHT31;9308;48.550;9.108;2022-09-09T01:45:51;15.31;69.77
18361;SHT31;9308;48.550;9.108;2022-09-09T01:48:19;15.28;69.92
18361;SHT31;9308;48.550;9.108;2022-09-09T01:50:45;15.18;69.79
18361;SHT31;9308;48.550;9.108;2022-09-09T01:53:11;15.21;69.91
18361;SHT31;9308;48.550;9.108;2022-09-09T01:55:42;15.20;69.92
18361;SHT31;9308;48.550;9.108;2022-09-09T02:01:05;15.10;70.32
18361;SHT31;9308;48.550;9.108;2022-09-09T02:03:32;15.32;69.30
18361;SHT31;9308;48.550;9.108;2022-09-09T02:06:20;15.57;68.57
18361;SHT31;9308;48.550;9.108;2022-09-09T02:08:49;15.34;69.43
18361;SHT31;9308;48.550;9.108;2022-09-09T02:11:20;15.50;69.02
18361;SHT31;9308;48.550;9.108;2022-09-09T02:13:48;15.51;68.82
18361;SHT31;9308;48.550;9.108;2022-09-09T02:19:48;15.61;68.60
18361;SHT31;9308;48.550;9.108;2022-09-09T02:22:17;15.47;69.16
18361;SHT31;9308;48.550;9.108;2022-09-09T02:24:45;15.51;68.86
18361;SHT31;9308;48.550;9.108;2022-09-09T02:27:12;15.65;68.53
18361;SHT31;9308;48.550;9.108;2022-09-09T02:29:41;15.68;68.36
18361;SHT31;9308;48.550;9.108;2022-09-09T02:32:09;15.62;68.76
18361;SHT31;9308;48.550;9.108;2022-09-09T02:34:40;15.66;69.17
18361;SHT31;9308;48.550;9.108;2022-09-09T02:37:09;15.79;68.61
18361;SHT31;9308;48.550;9.108;2022-09-09T02:39:36;15.72;68.84
18361;SHT31;9308;48.550;9.108;2022-09-09T02:42:03;15.79;69.26
18361;SHT31;9308;48.550;9.108;2022-09-09T02:44:29;15.72;69.31
18361;SHT31;9308;48.550;9.108;2022-09-09T02:52:59;15.48;71.06
18361;SHT31;9308;48.550;9.108;2022-09-09T02:55:41;15.40;71.08
18361;SHT31;9308;48.550;9.108;2022-09-09T02:58:11;15.27;71.10
18361;SHT31;9308;48.550;9.108;2022-09-09T03:00:38;15.30;71.50
18361;SHT31;9308;48.550;9.108;2022-09-09T03:03:07;15.23;71.87
18361;SHT31;9308;48.550;9.108;2022-09-09T03:05:34;15.32;71.84
18361;SHT31;9308;48.550;9.108;2022-09-09T03:07:59;15.21;72.11
18361;SHT31;9308;48.550;9.108;2022-09-09T03:10:24;15.20;72.13
18361;SHT31;9308;48.550;9.108;2022-09-09T03:12:50;15.21;72.20
18361;SHT31;9308;48.550;9.108;2022-09-09T03:15:16;15.14;72.73
18361;SHT31;9308;48.550;9.108;2022-09-09T03:17:42;15.00;72.93
18361;SHT31;9308;48.550;9.108;2022-09-09T03:20:08;14.95;73.37
18361;SHT31;9308;48.550;9.108;2022-09-09T03:22:34;14.99;73.06
18361;SHT31;9308;48.550;9.108;2022-09-09T03:25:00;15.34;71.96
18361;SHT31;9308;48.550;9.108;2022-09-09T03:27:25;15.37;71.66
18361;SHT31;9308;48.550;9.108;2022-09-09T03:29:51;15.34;71.87
18361;SHT31;9308;48.550;9.108;2022-09-09T03:32:17;14.96;73.27
18361;SHT31;9308;48.550;9.108;2022-09-09T03:34:43;15.21;72.26
18361;SHT31;9308;48.550;9.108;2022-09-09T03:37:09;15.24;72.30
18361;SHT31;9308;48.550;9.108;2022-09-09T03:39:34;15.26;72.58
18361;SHT31;9308;48.550;9.108;2022-09-09T03:42:00;15.20;72.60
18361;SHT31;9308;48.550;9.108;2022-09-09T03:44:30;15.10;72.97
18361;SHT31;9308;48.550;9.108;2022-09-09T03:46:55;15.07;73.43
18361;SHT31;9308;48.550;9.108;2022-09-09T03:49:21;15.10;73.34
18361;SHT31;9308;48.550;9.108;2022-09-09T03:51:47;15.15;72.81
18361;SHT31;9308;48.550;9.108;2022-09-09T03:54:12;15.27;72.48
18361;SHT31;9308;48.550;9.108;2022-09-09T03:56:38;15.20;73.27
18361;SHT31;9308;48.550;9.108;2022-09-09T03:59:06;15.13;73.32
18361;SHT31;9308;48.550;9.108;2022-09-09T04:01:32;15.17;73.08
18361;SHT31;9308;48.550;9.108;2022-09-09T04:03:57;15.15;73.22
18361;SHT31;9308;48.550;9.108;2022-09-09T04:06:24;15.06;73.81
18361;SHT31;9308;48.550;9.108;2022-09-09T04:08:49;14.86;74.54
18361;SHT31;9308;48.550;9.108;2022-09-09T04:11:17;15.02;74.08
18361;SHT31;9308;48.550;9.108;2022-09-09T04:13:43;14.90;73.89
18361;SHT31;9308;48.550;9.108;2022-09-09T04:16:11;14.83;74.37
18361;SHT31;9308;48.550;9.108;2022-09-09T04:18:38;14.85;74.30
18361;SHT31;9308;48.550;9.108;2022-09-09T04:21:04;14.80;74.82
18361;SHT31;9308;48.550;9.108;2022-09-09T04:23:32;14.89;74.79
18361;SHT31;9308;48.550;9.108;2022-09-09T04:26:00;14.99;74.80
18361;SHT31;9308;48.550;9.108;2022-09-09T04:28:28;15.06;74.48
18361;SHT31;9308;48.550;9.108;2022-09-09T04:30:54;15.21;74.26
18361;SHT31;9308;48.550;9.108;2022-09-09T04:33:20;15.14;74.62
18361;SHT31;9308;48.550;9.108;2022-09-09T04:35:48;15.17;74.57
18361;SHT31;9308;48.550;9.108;2022-09-09T04:38:16;15.14;74.56
18361;SHT31;9308;48.550;9.108;2022-09-09T04:40:48;15.17;74.87
18361;SHT31;9308;48.550;9.108;2022-09-09T04:43:15;15.37;74.82
18361;SHT31;9308;48.550;9.108;2022-09-09T04:45:47;15.42;74.42
18361;SHT31;9308;48.550;9.108;2022-09-09T04:48:13;15.32;75.03
18361;SHT31;9308;48.550;9.108;2022-09-09T04:50:39;15.34;74.93
18361;SHT31;9308;48.550;9.108;2022-09-09T04:53:05;15.41;74.86
18361;SHT31;9308;48.550;9.108;2022-09-09T04:55:31;15.27;75.10
18361;SHT31;9308;48.550;9.108;2022-09-09T04:57:57;15.26;75.44
18361;SHT31;9308;48.550;9.108;2022-09-09T05:00:24;15.21;75.73
18361;SHT31;9308;48.550;9.108;2022-09-09T05:02:49;15.27;75.52
18361;SHT31;9308;48.550;9.108;2022-09-09T05:05:15;15.40;74.82
18361;SHT31;9308;48.550;9.108;2022-09-09T05:07:41;15.48;74.40
18361;SHT31;9308;48.550;9.108;2022-09-09T05:10:07;15.41;74.65
18361;SHT31;9308;48.550;9.108;2022-09-09T05:12:33;15.51;74.32
18361;SHT31;9308;48.550;9.108;2022-09-09T05:14:58;15.61;74.08
18361;SHT31;9308;48.550;9.108;2022-09-09T05:17:24;15.58;73.88
18361;SHT31;9308;48.550;9.108;2022-09-09T05:19:49;15.45;74.14
18361;SHT31;9308;48.550;9.108;2022-09-09T05:22:19;15.52;74.22
18361;SHT31;9308;48.550;9.108;2022-09-09T05:24:45;15.58;73.51
18361;SHT31;9308;48.550;9.108;2022-09-09T05:27:11;15.72;73.44
18361;SHT31;9308;48.550;9.108;2022-09-09T05:29:38;15.76;73.24
18361;SHT31;9308;48.550;9.108;2022-09-09T05:32:04;15.87;73.42
18361;SHT31;9308;48.550;9.108;2022-09-09T05:34:30;16.13;71.94
18361;SHT31;9308;48.550;9.108;2022-09-09T05:36:55;16.13;72.22
18361;SHT31;9308;48.550;9.108;2022-09-09T05:39:20;16.23;71.89
18361;SHT31;9308;48.550;9.108;2022-09-09T05:41:46;16.30;71.87
18361;SHT31;9308;48.550;9.108;2022-09-09T05:44:11;16.34;72.06
18361;SHT31;9308;48.550;9.108;2022-09-09T05:46:37;16.45;72.59
18361;SHT31;9308;48.550;9.108;2022-09-09T05:49:03;16.33;73.52
18361;SHT31;9308;48.550;9.108;2022-09-09T05:51:31;16.45;72.66
18361;SHT31;9308;48.550;9.108;2022-09-09T05:53:56;16.56;72.28
18361;SHT31;9308;48.550;9.108;2022-09-09T05:56:26;16.66;71.43
18361;SHT31;9308;48.550;9.108;2022-09-09T05:58:53;16.54;71.11
18361;SHT31;9308;48.550;9.108;2022-09-09T06:01:32;16.51;71.13
18361;SHT31;9308;48.550;9.108;2022-09-09T06:03:58;16.45;71.44
18361;SHT31;9308;48.550;9.108;2022-09-09T06:06:26;16.61;70.44
18361;SHT31;9308;48.550;9.108;2022-09-09T06:08:53;16.68;70.43
18361;SHT31;9308;48.550;9.108;2022-09-09T06:11:24;16.65;69.93
18361;SHT31;9308;48.550;9.108;2022-09-09T06:13:50;16.69;69.76
18361;SHT31;9308;48.550;9.108;2022-09-09T06:16:24;16.58;69.85
18361;SHT31;9308;48.550;9.108;2022-09-09T06:18:50;16.82;70.08
18361;SHT31;9308;48.550;9.108;2022-09-09T06:21:18;16.91;70.38
18361;SHT31;9308;48.550;9.108;2022-09-09T06:23:44;17.04;70.53
18361;SHT31;9308;48.550;9.108;2022-09-09T06:26:12;17.06;70.67
18361;SHT31;9308;48.550;9.108;2022-09-09T06:28:38;17.23;71.16
18361;SHT31;9308;48.550;9.108;2022-09-09T06:31:06;17.37;71.78
18361;SHT31;9308;48.550;9.108;2022-09-09T06:33:40;17.62;70.50
18361;SHT31;9308;48.550;9.108;2022-09-09T06:36:14;17.83;69.12
18361;SHT31;9308;48.550;9.108;2022-09-09T06:38:40;17.71;69.65
18361;SHT31;9308;48.550;9.108;2022-09-09T06:41:06;17.97;68.67
18361;SHT31;9308;48.550;9.108;2022-09-09T06:43:33;18.31;68.03
18361;SHT31;9308;48.550;9.108;2022-09-09T06:48:29;18.45;68.18
18361;SHT31;9308;48.550;9.108;2022-09-09T06:53:29;18.45;67.00
18361;SHT31;9308;48.550;9.108;2022-09-09T06:55:54;18.50;67.33
18361;SHT31;9308;48.550;9.108;2022-09-09T06:58:20;18.60;66.99
18361;SHT31;9308;48.550;9.108;2022-09-09T07:00:48;18.72;67.47
18361;SHT31;9308;48.550;9.108;2022-09-09T07:03:14;18.93;66.19
18361;SHT31;9308;48.550;9.108;2022-09-09T07:05:40;19.07;66.02
18361;SHT31;9308;48.550;9.108;2022-09-09T07:08:05;19.00;66.05
18361;SHT31;9308;48.550;9.108;2022-09-09T07:10:31;18.88;65.54
18361;SHT31;9308;48.550;9.108;2022-09-09T07:12:57;19.09;65.86
18361;SHT31;9308;48.550;9.108;2022-09-09T07:15:22;19.11;66.76
18361;SHT31;9308;48.550;9.108;2022-09-09T07:17:48;19.09;65.61
18361;SHT31;9308;48.550;9.108;2022-09-09T07:20:14;19.33;64.99
18361;SHT31;9308;48.550;9.108;2022-09-09T07:22:40;19.34;64.93
18361;SHT31;9308;48.550;9.108;2022-09-09T07:25:06;19.36;64.03
18361;SHT31;9308;48.550;9.108;2022-09-09T07:27:32;19.34;64.32
18361;SHT31;9308;48.550;9.108;2022-09-09T07:29:57;19.02;65.28
18361;SHT31;9308;48.550;9.108;2022-09-09T07:32:23;18.50;67.09
18361;SHT31;9308;48.550;9.108;2022-09-09T07:34:48;18.58;67.34
18361;SHT31;9308;48.550;9.108;2022-09-09T07:37:15;18.85;66.48
18361;SHT31;9308;48.550;9.108;2022-09-09T07:39:41;19.04;65.96
18361;SHT31;9308;48.550;9.108;2022-09-09T07:42:07;18.86;65.69
18361;SHT31;9308;48.550;9.108;2022-09-09T07:44:33;18.93;66.90
18361;SHT31;9308;48.550;9.108;2022-09-09T07:47:01;19.02;66.86
18361;SHT31;9308;48.550;9.108;2022-09-09T07:49:26;19.27;67.74
18361;SHT31;9308;48.550;9.108;2022-09-09T07:51:52;19.37;66.51
18361;SHT31;9308;48.550;9.108;2022-09-09T07:54:19;19.45;66.01
18361;SHT31;9308;48.550;9.108;2022-09-09T07:56:49;19.85;64.95
18361;SHT31;9308;48.550;9.108;2022-09-09T07:59:15;20.10;65.20
18361;SHT31;9308;48.550;9.108;2022-09-09T08:01:43;20.40;64.23
18361;SHT31;9308;48.550;9.108;2022-09-09T08:04:14;20.65;63.49
18361;SHT31;9308;48.550;9.108;2022-09-09T08:06:43;20.36;64.37
18361;SHT31;9308;48.550;9.108;2022-09-09T08:09:09;20.43;63.52
18361;SHT31;9308;48.550;9.108;2022-09-09T08:11:35;20.54;63.98
18361;SHT31;9308;48.550;9.108;2022-09-09T08:14:02;20.47;62.86
18361;SHT31;9308;48.550;9.108;2022-09-09T08:16:32;20.36;63.99
18361;SHT31;9308;48.550;9.108;2022-09-09T08:18:58;19.96;64.15
18361;SHT31;9308;48.550;9.108;2022-09-09T08:21:26;20.09;64.64
18361;SHT31;9308;48.550;9.108;2022-09-09T08:23:54;20.48;63.79
18361;SHT31;9308;48.550;9.108;2022-09-09T08:26:22;20.91;61.76
18361;SHT31;9308;48.550;9.108;2022-09-09T08:28:52;21.40;60.72
18361;SHT31;9308;48.550;9.108;2022-09-09T08:31:21;21.22;60.81
18361;SHT31;9308;48.550;9.108;2022-09-09T08:33:47;21.29;60.12
18361;SHT31;9308;48.550;9.108;2022-09-09T08:36:16;21.82;60.24
18361;SHT31;9308;48.550;9.108;2022-09-09T08:38:42;21.87;59.86
18361;SHT31;9308;48.550;9.108;2022-09-09T08:44:14;21.81;59.82
18361;SHT31;9308;48.550;9.108;2022-09-09T08:47:11;21.65;59.43
18361;SHT31;9308;48.550;9.108;2022-09-09T08:52:22;22.25;58.61
18361;SHT31;9308;48.550;9.108;2022-09-09T08:54:50;22.37;57.62
18361;SHT31;9308;48.550;9.108;2022-09-09T08:57:26;22.16;59.10
18361;SHT31;9308;48.550;9.108;2022-09-09T08:59:54;22.05;60.30
18361;SHT31;9308;48.550;9.108;2022-09-09T09:02:32;21.99;61.14
18361;SHT31;9308;48.550;9.108;2022-09-09T09:05:27;21.94;60.64
18361;SHT31;9308;48.550;9.108;2022-09-09T09:08:24;21.82;60.28
18361;SHT31;9308;48.550;9.108;2022-09-09T09:10:54;22.08;60.52
18361;SHT31;9308;48.550;9.108;2022-09-09T09:13:30;22.32;59.96
18361;SHT31;9308;48.550;9.108;2022-09-09T09:16:06;22.70;58.78
18361;SHT31;9308;48.550;9.108;2022-09-09T09:18:35;22.74;59.23
18361;SHT31;9308;48.550;9.108;2022-09-09T09:24:00;23.12;57.12
18361;SHT31;9308;48.550;9.108;2022-09-09T09:26:31;23.28;55.95
18361;SHT31;9308;48.550;9.108;2022-09-09T09:28:58;23.46;56.55
18361;SHT31;9308;48.550;9.108;2022-09-09T09:31:24;23.91;55.64
18361;SHT31;9308;48.550;9.108;2022-09-09T09:33:56;23.77;52.97
18361;SHT31;9308;48.550;9.108;2022-09-09T09:36:54;24.70;51.58
18361;SHT31;9308;48.550;9.108;2022-09-09T09:39:25;25.08;52.53
18361;SHT31;9308;48.550;9.108;2022-09-09T09:41:52;25.96;48.51
18361;SHT31;9308;48.550;9.108;2022-09-09T09:44:29;25.87;47.75
18361;SHT31;9308;48.550;9.108;2022-09-09T09:47:17;26.14;47.31
18361;SHT31;9308;48.550;9.108;2022-09-09T09:49:54;27.51;44.38
18361;SHT31;9308;48.550;9.108;2022-09-09T09:52:26;27.04;45.63
18361;SHT31;9308;48.550;9.108;2022-09-09T09:54:53;28.75;42.85
18361;SHT31;9308;48.550;9.108;2022-09-09T09:57:24;31.86;35.51
18361;SHT31;9308;48.550;9.108;2022-09-09T10:00:15;34.62;31.71
18361;SHT31;9308;48.550;9.108;2022-09-09T10:02:43;30.26;37.69
18361;SHT31;9308;48.550;9.108;2022-09-09T10:07:47;41.81;23.72
18361;SHT31;9308;48.550;9.108;2022-09-09T10:10:22;41.94;21.39
18361;SHT31;9308;48.550;9.108;2022-09-09T10:18:35;45.86;19.53
18361;SHT31;9308;48.550;9.108;2022-09-09T10:21:23;48.32;17.97
18361;SHT31;9308;48.550;9.108;2022-09-09T10:34:55;35.06;27.95
18361;SHT31;9308;48.550;9.108;2022-09-09T10:40:43;32.06;33.96
18361;SHT31;9308;48.550;9.108;2022-09-09T10:46:03;45.02;20.15
18361;SHT31;9308;48.550;9.108;2022-09-09T10:48:59;48.34;17.07
18361;SHT31;9308;48.550;9.108;2022-09-09T10:54:20;50.87;15.41
18361;SHT31;9308;48.550;9.108;2022-09-09T10:56:54;51.45;15.08
18361;SHT31;9308;48.550;9.108;2022-09-09T10:59:29;42.73;20.08
18361;SHT31;9308;48.550;9.108;2022-09-09T11:02:01;38.79;23.81
18361;SHT31;9308;48.550;9.108;2022-09-09T11:07:08;40.65;20.72
18361;SHT31;9308;48.550;9.108;2022-09-09T11:09:39;37.23;25.49
18361;SHT31;9308;48.550;9.108;2022-09-09T11:12:13;31.54;31.48
18361;SHT31;9308;48.550;9.108;2022-09-09T11:14:47;28.12;36.99
18361;SHT31;9308;48.550;9.108;2022-09-09T11:17:36;25.42;42.65
18361;SHT31;9308;48.550;9.108;2022-09-09T11:20:05;25.10;43.75
18361;SHT31;9308;48.550;9.108;2022-09-09T11:22:37;25.10;44.08
18361;SHT31;9308;48.550;9.108;2022-09-09T11:38:46;26.02;42.23
18361;SHT31;9308;48.550;9.108;2022-09-09T11:41:14;27.41;38.96
18361;SHT31;9308;48.550;9.108;2022-09-09T11:43:49;37.11;26.26
18361;SHT31;9308;48.550;9.108;2022-09-09T11:46:34;42.42;20.63
18361;SHT31;9308;48.550;9.108;2022-09-09T11:49:03;45.33;18.00
18361;SHT31;9308;48.550;9.108;2022-09-09T11:51:31;44.88;17.80
18361;SHT31;9308;48.550;9.108;2022-09-09T11:53:59;42.97;18.65
18361;SHT31;9308;48.550;9.108;2022-09-09T11:56:34;45.48;17.65
18361;SHT31;9308;48.550;9.108;2022-09-09T11:59:29;47.39;16.38
18361;SHT31;9308;48.550;9.108;2022-09-09T12:04:30;48.19;16.34
18361;SHT31;9308;48.550;9.108;2022-09-09T12:07:25;48.20;15.82
18361;SHT31;9308;48.550;9.108;2022-09-09T12:09:51;48.91;15.93
18361;SHT31;9308;48.550;9.108;2022-09-09T12:17:25;46.91;17.07
18361;SHT31;9308;48.550;9.108;2022-09-09T12:28:18;33.80;28.45
18361;SHT31;9308;48.550;9.108;2022-09-09T12:33:35;29.18;34.23
18361;SHT31;9308;48.550;9.108;2022-09-09T12:36:03;29.29;35.59
18361;SHT31;9308;48.550;9.108;2022-09-09T12:38:34;28.75;36.55
18361;SHT31;9308;48.550;9.108;2022-09-09T12:40:59;27.35;38.04
18361;SHT31;9308;48.550;9.108;2022-09-09T12:43:26;27.04;38.62
18361;SHT31;9308;48.550;9.108;2022-09-09T12:46:23;27.32;37.54
18361;SHT31;9308;48.550;9.108;2022-09-09T12:48:52;27.20;38.25
18361;SHT31;9308;48.550;9.108;2022-09-09T12:51:23;27.52;37.20
18361;SHT31;9308;48.550;9.108;2022-09-09T12:53:51;26.83;37.37
18361;SHT31;9308;48.550;9.108;2022-09-09T12:56:22;25.86;39.07
18361;SHT31;9308;48.550;9.108;2022-09-09T12:58:50;25.50;39.31
18361;SHT31;9308;48.550;9.108;2022-09-09T13:01:28;25.97;39.49
18361;SHT31;9308;48.550;9.108;2022-09-09T13:03:55;26.08;39.85
18361;SHT31;9308;48.550;9.108;2022-09-09T13:06:29;26.39;39.68
18361;SHT31;9308;48.550;9.108;2022-09-09T13:08:59;26.36;38.60
18361;SHT31;9308;48.550;9.108;2022-09-09T13:11:29;28.10;36.35
18361;SHT31;9308;48.550;9.108;2022-09-09T13:13:57;28.53;35.09
18361;SHT31;9308;48.550;9.108;2022-09-09T13:16:29;27.28;38.75
18361;SHT31;9308;48.550;9.108;2022-09-09T13:19:06;28.42;36.37
18361;SHT31;9308;48.550;9.108;2022-09-09T13:21:37;29.35;34.19
18361;SHT31;9308;48.550;9.108;2022-09-09T13:24:05;34.25;28.27
18361;SHT31;9308;48.550;9.108;2022-09-09T13:26:33;32.87;30.56
18361;SHT31;9308;48.550;9.108;2022-09-09T13:29:14;31.22;32.00
18361;SHT31;9308;48.550;9.108;2022-09-09T13:31:43;30.75;33.65
18361;SHT31;9308;48.550;9.108;2022-09-09T13:34:31;29.30;35.06
18361;SHT31;9308;48.550;9.108;2022-09-09T13:37:02;29.71;33.88
18361;SHT31;9308;48.550;9.108;2022-09-09T13:39:29;29.84;34.17
18361;SHT31;9308;48.550;9.108;2022-09-09T13:41:54;30.28;33.55
18361;SHT31;9308;48.550;9.108;2022-09-09T13:44:27;33.80;29.13
18361;SHT31;9308;48.550;9.108;2022-09-09T13:47:17;42.02;21.22
18361;SHT31;9308;48.550;9.108;2022-09-09T13:49:44;44.39;19.19
18361;SHT31;9308;48.550;9.108;2022-09-09T13:52:15;44.61;17.96
18361;SHT31;9308;48.550;9.108;2022-09-09T13:54:42;44.83;18.51
18361;SHT31;9308;48.550;9.108;2022-09-09T13:57:16;45.05;17.51
18361;SHT31;9308;48.550;9.108;2022-09-09T13:59:44;43.82;18.37
18361;SHT31;9308;48.550;9.108;2022-09-09T14:02:10;41.16;20.13
18361;SHT31;9308;48.550;9.108;2022-09-09T14:04:35;34.68;25.78
18361;SHT31;9308;48.550;9.108;2022-09-09T14:07:01;31.68;28.85
18361;SHT31;9308;48.550;9.108;2022-09-09T14:09:27;34.07;27.58
18361;SHT31;9308;48.550;9.108;2022-09-09T14:11:53;39.09;22.12
18361;SHT31;9308;48.550;9.108;2022-09-09T14:14:20;42.39;19.51
18361;SHT31;9308;48.550;9.108;2022-09-09T14:16:45;41.39;20.05
18361;SHT31;9308;48.550;9.108;2022-09-09T14:19:11;37.35;23.44
18361;SHT31;9308;48.550;9.108;2022-09-09T14:21:36;39.28;21.50
18361;SHT31;9308;48.550;9.108;2022-09-09T14:24:02;39.69;21.56
18361;SHT31;9308;48.550;9.108;2022-09-09T14:26:27;34.61;25.41
18361;SHT31;9308;48.550;9.108;2022-09-09T14:28:55;41.40;20.75
18361;SHT31;9308;48.550;9.108;2022-09-09T14:31:24;37.15;25.01
18361;SHT31;9308;48.550;9.108;2022-09-09T14:33:50;37.46;24.23
18361;SHT31;9308;48.550;9.108;2022-09-09T14:36:16;36.99;25.20
18361;SHT31;9308;48.550;9.108;2022-09-09T14:38:42;35.51;25.12
18361;SHT31;9308;48.550;9.108;2022-09-09T14:41:16;37.85;21.36
18361;SHT31;9308;48.550;9.108;2022-09-09T14:43:45;34.31;25.88
18361;SHT31;9308;48.550;9.108;2022-09-09T14:46:16;38.02;22.71
18361;SHT31;9308;48.550;9.108;2022-09-09T14:48:42;36.36;23.33
18361;SHT31;9308;48.550;9.108;2022-09-09T14:51:12;33.32;25.97
18361;SHT31;9308;48.550;9.108;2022-09-09T14:53:38;36.82;23.89
18361;SHT31;9308;48.550;9.108;2022-09-09T14:56:09;33.98;26.62
18361;SHT31;9308;48.550;9.108;2022-09-09T14:58:36;33.73;26.59
18361;SHT31;9308;48.550;9.108;2022-09-09T15:01:11;32.18;27.54
18361;SHT31;9308;48.550;9.108;2022-09-09T15:03:38;31.61;28.14
18361;SHT31;9308;48.550;9.108;2022-09-09T15:06:11;30.13;30.04
18361;SHT31;9308;48.550;9.108;2022-09-09T15:08:38;29.76;31.28
18361;SHT31;9308;48.550;9.108;2022-09-09T15:11:05;28.52;32.18
18361;SHT31;9308;48.550;9.108;2022-09-09T15:13:31;28.21;33.56
18361;SHT31;9308;48.550;9.108;2022-09-09T15:16:04;28.04;33.40
18361;SHT31;9308;48.550;9.108;2022-09-09T15:18:29;27.65;33.73
18361;SHT31;9308;48.550;9.108;2022-09-09T15:20:55;26.79;34.46
18361;SHT31;9308;48.550;9.108;2022-09-09T15:23:21;25.91;35.44
18361;SHT31;9308;48.550;9.108;2022-09-09T15:25:51;25.60;35.56
18361;SHT31;9308;48.550;9.108;2022-09-09T15:28:17;25.62;36.10
18361;SHT31;9308;48.550;9.108;2022-09-09T15:30:43;25.56;36.85
18361;SHT31;9308;48.550;9.108;2022-09-09T15:33:10;25.18;37.27
18361;SHT31;9308;48.550;9.108;2022-09-09T15:35:36;25.14;37.52
18361;SHT31;9308;48.550;9.108;2022-09-09T15:38:02;24.53;38.44
18361;SHT31;9308;48.550;9.108;2022-09-09T15:40:30;24.05;39.63
18361;SHT31;9308;48.550;9.108;2022-09-09T15:42:58;24.09;40.02
18361;SHT31;9308;48.550;9.108;2022-09-09T15:45:23;23.84;42.12
18361;SHT31;9308;48.550;9.108;2022-09-09T15:47:49;23.77;43.62
18361;SHT31;9308;48.550;9.108;2022-09-09T15:50:14;23.50;41.29
18361;SHT31;9308;48.550;9.108;2022-09-09T15:52:40;23.47;41.22
18361;SHT31;9308;48.550;9.108;2022-09-09T15:55:06;23.25;40.96
18361;SHT31;9308;48.550;9.108;2022-09-09T15:57:31;22.90;40.92
18361;SHT31;9308;48.550;9.108;2022-09-09T15:59:57;23.36;40.88
18361;SHT31;9308;48.550;9.108;2022-09-09T16:02:24;22.73;41.51
18361;SHT31;9308;48.550;9.108;2022-09-09T16:04:50;22.82;40.53
18361;SHT31;9308;48.550;9.108;2022-09-09T16:07:15;22.94;40.46
18361;SHT31;9308;48.550;9.108;2022-09-09T16:09:41;23.08;41.20
18361;SHT31;9308;48.550;9.108;2022-09-09T16:12:09;23.12;40.42
18361;SHT31;9308;48.550;9.108;2022-09-09T16:14:38;22.96;41.23
18361;SHT31;9308;48.550;9.108;2022-09-09T16:17:05;22.88;41.38
18361;SHT31;9308;48.550;9.108;2022-09-09T16:19:31;22.67;41.62
18361;SHT31;9308;48.550;9.108;2022-09-09T16:21:57;22.80;41.50
18361;SHT31;9308;48.550;9.108;2022-09-09T16:24:23;22.65;42.01
18361;SHT31;9308;48.550;9.108;2022-09-09T16:26:51;22.65;42.79
18361;SHT31;9308;48.550;9.108;2022-09-09T16:29:18;22.37;43.52
18361;SHT31;9308;48.550;9.108;2022-09-09T16:31:47;22.25;43.75
18361;SHT31;9308;48.550;9.108;2022-09-09T16:34:14;21.95;44.53
18361;SHT31;9308;48.550;9.108;2022-09-09T16:36:41;21.91;44.83
18361;SHT31;9308;48.550;9.108;2022-09-09T16:39:09;22.02;45.55
18361;SHT31;9308;48.550;9.108;2022-09-09T16:41:35;21.88;45.23
18361;SHT31;9308;48.550;9.108;2022-09-09T16:44:04;21.78;45.52
18361;SHT31;9308;48.550;9.108;2022-09-09T16:46:33;21.60;46.65
18361;SHT31;9308;48.550;9.108;2022-09-09T16:49:00;21.51;46.57
18361;SHT31;9308;48.550;9.108;2022-09-09T16:51:28;21.44;47.09
18361;SHT31;9308;48.550;9.108;2022-09-09T16:53:55;21.49;47.37
18361;SHT31;9308;48.550;9.108;2022-09-09T16:56:24;21.33;47.31
18361;SHT31;9308;48.550;9.108;2022-09-09T16:58:52;21.20;47.89
18361;SHT31;9308;48.550;9.108;2022-09-09T17:01:19;21.13;48.05
18361;SHT31;9308;48.550;9.108;2022-09-09T17:03:44;21.16;48.30
18361;SHT31;9308;48.550;9.108;2022-09-09T17:06:11;21.15;48.74
18361;SHT31;9308;48.550;9.108;2022-09-09T17:08:38;21.19;48.86
18361;SHT31;9308;48.550;9.108;2022-09-09T17:11:11;21.40;48.68
18361;SHT31;9308;48.550;9.108;2022-09-09T17:13:40;21.09;49.97
18361;SHT31;9308;48.550;9.108;2022-09-09T17:16:06;21.32;49.19
18361;SHT31;9308;48.550;9.108;2022-09-09T17:18:31;21.27;48.49
18361;SHT31;9308;48.550;9.108;2022-09-09T17:21:02;20.99;49.73
18361;SHT31;9308;48.550;9.108;2022-09-09T17:23:28;20.98;49.89
18361;SHT31;9308;48.550;9.108;2022-09-09T17:25:57;20.98;49.56
18361;SHT31;9308;48.550;9.108;2022-09-09T17:28:23;20.86;50.20
18361;SHT31;9308;48.550;9.108;2022-09-09T17:30:52;20.67;50.95
18361;SHT31;9308;48.550;9.108;2022-09-09T17:33:18;20.36;52.58
18361;SHT31;9308;48.550;9.108;2022-09-09T17:35:45;20.29;51.61
18361;SHT31;9308;48.550;9.108;2022-09-09T17:38:11;20.14;52.51
18361;SHT31;9308;48.550;9.108;2022-09-09T17:40:37;20.21;52.42
18361;SHT31;9308;48.550;9.108;2022-09-09T17:43:02;19.82;52.78